sensor_id;sensor_type;location;lat;lon;timestamp;temperature;humidity
59505;DHT22;45321;53.200;5.814;2022-12-11T00:00:11;1.70;91.70
59505;DHT22;45321;53.200;5.814;2022-12-11T00:02:37;1.70;91.80
59505;DHT22;45321;53.200;5.814;2022-12-11T00:05:03;1.70;91.80
59505;DHT22;45321;53.200;5.814;2022-12-11T00:07:28;1.70;92.10
59505;DHT22;45321;53.200;5.814;2022-12-11T00:09:54;1.70;91.90
59505;DHT22;45321;53.200;5.814;2022-12-11T00:12:20;1.70;92.10
59505;DHT22;45321;53.200;5.814;2022-12-11T00:14:46;1.70;92.00
59505;DHT22;45321;53.200;5.814;2022-12-11T00:17:11;1.80;91.90
59505;DHT22;45321;53.200;5.814;2022-12-11T00:19:37;1.80;91.90
59505;DHT22;45321;53.200;5.814;2022-12-11T00:22:03;1.80;92.10
59505;DHT22;45321;53.200;5.814;2022-12-11T00:24:29;1.80;92.10
59505;DHT22;45321;53.200;5.814;2022-12-11T00:26:54;1.80;92.00
59505;DHT22;45321;53.200;5.814;2022-12-11T00:29:20;1.80;92.00
59505;DHT22;45321;53.200;5.814;2022-12-11T00:31:46;1.80;91.80
59505;DHT22;45321;53.200;5.814;2022-12-11T00:34:12;1.80;92.00
59505;DHT22;45321;53.200;5.814;2022-12-11T00:36:38;1.90;92.00
59505;DHT22;45321;53.200;5.814;2022-12-11T00:39:04;1.90;91.90
59505;DHT22;45321;53.200;5.814;2022-12-11T00:41:30;1.90;91.80
59505;DHT22;45321;53.200;5.814;2022-12-11T00:43:56;1.90;91.60
59505;DHT22;45321;53.200;5.814;2022-12-11T00:46:22;1.90;91.60
59505;DHT22;45321;53.200;5.814;2022-12-11T00:48:48;1.90;91.60
59505;DHT22;45321;53.200;5.814;2022-12-11T00:51:16;1.90;91.70
59505;DHT22;45321;53.200;5.814;2022-12-11T00:53:42;1.90;91.70
59505;DHT22;45321;53.200;5.814;2022-12-11T00:56:17;1.90;91.60
59505;DHT22;45321;53.200;5.814;2022-12-11T00:58:44;1.90;91.50
59505;DHT22;45321;53.200;5.814;2022-12-11T01:01:12;1.90;91.60
59505;DHT22;45321;53.200;5.814;2022-12-11T01:03:38;1.90;91.60
59505;DHT22;45321;53.200;5.814;2022-12-11T01:06:05;1.80;91.50
59505;DHT22;45321;53.200;5.814;2022-12-11T01:08:31;1.80;91.50
59505;DHT22;45321;53.200;5.814;2022-12-11T01:11:05;1.90;91.50
59505;DHT22;45321;53.200;5.814;2022-12-11T01:13:31;1.90;91.40
59505;DHT22;45321;53.200;5.814;2022-12-11T01:15:57;1.90;91.40
59505;DHT22;45321;53.200;5.814;2022-12-11T01:18:23;1.90;91.40
59505;DHT22;45321;53.200;5.814;2022-12-11T01:20:49;1.90;91.40
59505;DHT22;45321;53.200;5.814;2022-12-11T01:23:15;1.90;91.40
59505;DHT22;45321;53.200;5.814;2022-12-11T01:25:41;1.90;91.40
59505;DHT22;45321;53.200;5.814;2022-12-11T01:28:08;1.90;91.30
59505;DHT22;45321;53.200;5.814;2022-12-11T01:30:34;1.90;91.30
59505;DHT22;45321;53.200;5.814;2022-12-11T01:33:00;1.90;91.30
59505;DHT22;45321;53.200;5.814;2022-12-11T01:35:26;1.90;91.30
59505;DHT22;45321;53.200;5.814;2022-12-11T01:37:51;1.90;91.30
59505;DHT22;45321;53.200;5.814;2022-12-11T01:40:19;1.90;91.30
59505;DHT22;45321;53.200;5.814;2022-12-11T01:42:45;2.00;91.40
59505;DHT22;45321;53.200;5.814;2022-12-11T01:45:38;2.00;91.30
59505;DHT22;45321;53.200;5.814;2022-12-11T01:48:08;2.00;91.40
59505;DHT22;45321;53.200;5.814;2022-12-11T01:50:43;2.00;91.40
59505;DHT22;45321;53.200;5.814;2022-12-11T01:53:12;2.10;91.30
59505;DHT22;45321;53.200;5.814;2022-12-11T01:55:40;2.10;91.30
59505;DHT22;45321;53.200;5.814;2022-12-11T01:58:07;2.10;91.30
59505;DHT22;45321;53.200;5.814;2022-12-11T02:00:34;2.10;91.20
59505;DHT22;45321;53.200;5.814;2022-12-11T02:03:00;2.10;91.20
59505;DHT22;45321;53.200;5.814;2022-12-11T02:05:26;2.10;91.30
59505;DHT22;45321;53.200;5.814;2022-12-11T02:07:56;2.10;91.40
59505;DHT22;45321;53.200;5.814;2022-12-11T02:11:00;2.20;91.40
59505;DHT22;45321;53.200;5.814;2022-12-11T02:14:24;2.20;91.20
59505;DHT22;45321;53.200;5.814;2022-12-11T02:16:48;2.20;91.20
59505;DHT22;45321;53.200;5.814;2022-12-11T02:21:54;2.30;91.20
59505;DHT22;45321;53.200;5.814;2022-12-11T02:24:49;2.30;91.20
59505;DHT22;45321;53.200;5.814;2022-12-11T02:30:10;2.30;91.10
59505;DHT22;45321;53.200;5.814;2022-12-11T02:32:58;2.40;90.90
59505;DHT22;45321;53.200;5.814;2022-12-11T02:35:29;2.40;90.90
59505;DHT22;45321;53.200;5.814;2022-12-11T02:38:09;2.40;90.90
59505;DHT22;45321;53.200;5.814;2022-12-11T02:40:39;2.40;90.90
59505;DHT22;45321;53.200;5.814;2022-12-11T02:43:08;2.50;90.80
59505;DHT22;45321;53.200;5.814;2022-12-11T02:45:35;2.50;90.70
59505;DHT22;45321;53.200;5.814;2022-12-11T02:48:03;2.50;90.60
59505;DHT22;45321;53.200;5.814;2022-12-11T02:50:31;2.50;90.50
59505;DHT22;45321;53.200;5.814;2022-12-11T02:52:59;2.50;90.50
59505;DHT22;45321;53.200;5.814;2022-12-11T02:55:28;2.50;90.50
59505;DHT22;45321;53.200;5.814;2022-12-11T03:00:26;2.50;90.70
59505;DHT22;45321;53.200;5.814;2022-12-11T03:02:52;2.50;90.60
59505;DHT22;45321;53.200;5.814;2022-12-11T03:05:18;2.50;90.90
59505;DHT22;45321;53.200;5.814;2022-12-11T03:07:43;2.50;90.80
59505;DHT22;45321;53.200;5.814;2022-12-11T03:10:12;2.60;90.80
59505;DHT22;45321;53.200;5.814;2022-12-11T03:12:41;2.60;90.70
59505;DHT22;45321;53.200;5.814;2022-12-11T03:15:13;2.60;90.80
59505;DHT22;45321;53.200;5.814;2022-12-11T03:17:55;2.60;90.70
59505;DHT22;45321;53.200;5.814;2022-12-11T03:20:36;2.70;90.60
59505;DHT22;45321;53.200;5.814;2022-12-11T03:23:19;2.60;90.50
59505;DHT22;45321;53.200;5.814;2022-12-11T03:25:54;2.60;90.50
59505;DHT22;45321;53.200;5.814;2022-12-11T03:31:04;2.60;90.70
59505;DHT22;45321;53.200;5.814;2022-12-11T03:33:36;2.60;90.70
59505;DHT22;45321;53.200;5.814;2022-12-11T03:36:05;2.50;90.80
59505;DHT22;45321;53.200;5.814;2022-12-11T03:38:55;2.50;90.80
59505;DHT22;45321;53.200;5.814;2022-12-11T03:41:24;2.50;90.80
59505;DHT22;45321;53.200;5.814;2022-12-11T03:43:52;2.60;90.70
59505;DHT22;45321;53.200;5.814;2022-12-11T03:46:21;2.50;90.80
59505;DHT22;45321;53.200;5.814;2022-12-11T03:48:49;2.50;90.70
59505;DHT22;45321;53.200;5.814;2022-12-11T03:51:16;2.50;90.70
59505;DHT22;45321;53.200;5.814;2022-12-11T03:53:42;2.50;90.60
59505;DHT22;45321;53.200;5.814;2022-12-11T03:56:10;2.50;90.80
59505;DHT22;45321;53.200;5.814;2022-12-11T03:58:38;2.50;90.60
59505;DHT22;45321;53.200;5.814;2022-12-11T04:01:08;2.40;90.70
59505;DHT22;45321;53.200;5.814;2022-12-11T04:03:33;2.40;90.80
59505;DHT22;45321;53.200;5.814;2022-12-11T04:05:59;2.40;91.00
59505;DHT22;45321;53.200;5.814;2022-12-11T04:08:25;2.40;90.80
59505;DHT22;45321;53.200;5.814;2022-12-11T04:10:51;2.40;90.80
59505;DHT22;45321;53.200;5.814;2022-12-11T04:13:36;2.40;90.70
59505;DHT22;45321;53.200;5.814;2022-12-11T04:16:01;2.40;90.70
59505;DHT22;45321;53.200;5.814;2022-12-11T04:18:27;2.40;90.70
59505;DHT22;45321;53.200;5.814;2022-12-11T04:21:11;2.40;90.70
59505;DHT22;45321;53.200;5.814;2022-12-11T04:23:56;2.40;90.60
59505;DHT22;45321;53.200;5.814;2022-12-11T04:26:41;2.30;90.60
59505;DHT22;45321;53.200;5.814;2022-12-11T04:29:07;2.30;90.60
59505;DHT22;45321;53.200;5.814;2022-12-11T04:31:32;2.30;90.70
59505;DHT22;45321;53.200;5.814;2022-12-11T04:33:58;2.30;90.80
59505;DHT22;45321;53.200;5.814;2022-12-11T04:36:24;2.30;90.80
59505;DHT22;45321;53.200;5.814;2022-12-11T04:38:50;2.40;90.80
59505;DHT22;45321;53.200;5.814;2022-12-11T04:41:16;2.40;90.80
59505;DHT22;45321;53.200;5.814;2022-12-11T04:43:42;2.40;90.60
59505;DHT22;45321;53.200;5.814;2022-12-11T04:46:14;2.40;90.80
59505;DHT22;45321;53.200;5.814;2022-12-11T04:48:40;2.40;90.70
59505;DHT22;45321;53.200;5.814;2022-12-11T04:51:06;2.50;90.70
59505;DHT22;45321;53.200;5.814;2022-12-11T04:53:32;2.50;90.60
59505;DHT22;45321;53.200;5.814;2022-12-11T04:55:58;2.40;90.60
59505;DHT22;45321;53.200;5.814;2022-12-11T04:58:24;2.50;90.50
59505;DHT22;45321;53.200;5.814;2022-12-11T05:00:50;2.50;90.50
59505;DHT22;45321;53.200;5.814;2022-12-11T05:03:16;2.50;90.50
59505;DHT22;45321;53.200;5.814;2022-12-11T05:05:49;2.60;90.30
59505;DHT22;45321;53.200;5.814;2022-12-11T05:08:20;2.60;90.50
59505;DHT22;45321;53.200;5.814;2022-12-11T05:11:03;2.60;90.50
59505;DHT22;45321;53.200;5.814;2022-12-11T05:13:30;2.60;90.30
59505;DHT22;45321;53.200;5.814;2022-12-11T05:15:57;2.60;90.40
59505;DHT22;45321;53.200;5.814;2022-12-11T05:18:23;2.60;90.10
59505;DHT22;45321;53.200;5.814;2022-12-11T05:20:59;2.60;90.00
59505;DHT22;45321;53.200;5.814;2022-12-11T05:23:25;2.50;90.10
59505;DHT22;45321;53.200;5.814;2022-12-11T05:25:53;2.60;90.20
59505;DHT22;45321;53.200;5.814;2022-12-11T05:28:20;2.60;90.20
59505;DHT22;45321;53.200;5.814;2022-12-11T05:30:46;2.60;90.30
59505;DHT22;45321;53.200;5.814;2022-12-11T05:33:11;2.60;90.30
59505;DHT22;45321;53.200;5.814;2022-12-11T05:35:37;2.60;90.20
59505;DHT22;45321;53.200;5.814;2022-12-11T05:38:03;2.60;90.10
59505;DHT22;45321;53.200;5.814;2022-12-11T05:40:29;2.60;90.10
59505;DHT22;45321;53.200;5.814;2022-12-11T05:42:55;2.60;90.10
59505;DHT22;45321;53.200;5.814;2022-12-11T05:45:20;2.60;90.10
59505;DHT22;45321;53.200;5.814;2022-12-11T05:47:46;2.60;90.00
59505;DHT22;45321;53.200;5.814;2022-12-11T05:50:12;2.60;90.00
59505;DHT22;45321;53.200;5.814;2022-12-11T05:52:37;2.60;90.00
59505;DHT22;45321;53.200;5.814;2022-12-11T05:55:03;2.50;90.00
59505;DHT22;45321;53.200;5.814;2022-12-11T05:57:29;2.50;90.20
59505;DHT22;45321;53.200;5.814;2022-12-11T05:59:55;2.50;90.10
59505;DHT22;45321;53.200;5.814;2022-12-11T06:02:20;2.60;90.10
59505;DHT22;45321;53.200;5.814;2022-12-11T06:04:46;2.60;90.20
59505;DHT22;45321;53.200;5.814;2022-12-11T06:07:12;2.50;90.20
59505;DHT22;45321;53.200;5.814;2022-12-11T06:09:37;2.50;90.20
59505;DHT22;45321;53.200;5.814;2022-12-11T06:12:03;2.50;90.20
59505;DHT22;45321;53.200;5.814;2022-12-11T06:14:29;2.60;90.30
59505;DHT22;45321;53.200;5.814;2022-12-11T06:16:54;2.50;90.20
59505;DHT22;45321;53.200;5.814;2022-12-11T06:19:20;2.60;90.10
59505;DHT22;45321;53.200;5.814;2022-12-11T06:21:46;2.60;90.10
59505;DHT22;45321;53.200;5.814;2022-12-11T06:24:13;2.60;90.00
59505;DHT22;45321;53.200;5.814;2022-12-11T06:26:39;2.60;90.10
59505;DHT22;45321;53.200;5.814;2022-12-11T06:29:05;2.60;90.20
59505;DHT22;45321;53.200;5.814;2022-12-11T06:31:30;2.60;90.20
59505;DHT22;45321;53.200;5.814;2022-12-11T06:33:56;2.60;90.20
59505;DHT22;45321;53.200;5.814;2022-12-11T06:36:23;2.60;90.20
59505;DHT22;45321;53.200;5.814;2022-12-11T06:38:49;2.60;90.00
59505;DHT22;45321;53.200;5.814;2022-12-11T06:41:15;2.60;90.00
59505;DHT22;45321;53.200;5.814;2022-12-11T06:43:42;2.60;90.10
59505;DHT22;45321;53.200;5.814;2022-12-11T06:46:15;2.60;89.90
59505;DHT22;45321;53.200;5.814;2022-12-11T06:48:42;2.60;89.90
59505;DHT22;45321;53.200;5.814;2022-12-11T06:51:13;2.50;90.10
59505;DHT22;45321;53.200;5.814;2022-12-11T06:53:39;2.50;90.20
59505;DHT22;45321;53.200;5.814;2022-12-11T06:56:08;2.50;90.30
59505;DHT22;45321;53.200;5.814;2022-12-11T06:58:35;2.50;90.30
59505;DHT22;45321;53.200;5.814;2022-12-11T07:01:11;2.60;90.20
59505;DHT22;45321;53.200;5.814;2022-12-11T07:03:38;2.60;90.20
59505;DHT22;45321;53.200;5.814;2022-12-11T07:06:03;2.60;90.30
59505;DHT22;45321;53.200;5.814;2022-12-11T07:08:29;2.60;90.20
59505;DHT22;45321;53.200;5.814;2022-12-11T07:11:05;2.60;90.20
59505;DHT22;45321;53.200;5.814;2022-12-11T07:13:32;2.60;90.20
59505;DHT22;45321;53.200;5.814;2022-12-11T07:15:58;2.60;90.00
59505;DHT22;45321;53.200;5.814;2022-12-11T07:18:26;2.60;90.00
59505;DHT22;45321;53.200;5.814;2022-12-11T07:20:52;2.60;89.90
59505;DHT22;45321;53.200;5.814;2022-12-11T07:23:18;2.60;90.00
59505;DHT22;45321;53.200;5.814;2022-12-11T07:25:44;2.60;90.10
59505;DHT22;45321;53.200;5.814;2022-12-11T07:28:09;2.60;90.10
59505;DHT22;45321;53.200;5.814;2022-12-11T07:30:37;2.60;90.00
59505;DHT22;45321;53.200;5.814;2022-12-11T07:33:03;2.60;90.00
59505;DHT22;45321;53.200;5.814;2022-12-11T07:35:29;2.60;90.00
59505;DHT22;45321;53.200;5.814;2022-12-11T07:37:54;2.70;90.00
59505;DHT22;45321;53.200;5.814;2022-12-11T07:40:20;2.60;90.00
59505;DHT22;45321;53.200;5.814;2022-12-11T07:42:46;2.60;90.00
59505;DHT22;45321;53.200;5.814;2022-12-11T07:45:12;2.60;90.00
59505;DHT22;45321;53.200;5.814;2022-12-11T07:47:37;2.60;89.80
59505;DHT22;45321;53.200;5.814;2022-12-11T07:50:03;2.60;90.00
59505;DHT22;45321;53.200;5.814;2022-12-11T07:52:29;2.50;89.90
59505;DHT22;45321;53.200;5.814;2022-12-11T07:54:57;2.60;90.20
59505;DHT22;45321;53.200;5.814;2022-12-11T07:57:23;2.50;90.30
59505;DHT22;45321;53.200;5.814;2022-12-11T07:59:49;2.60;90.40
59505;DHT22;45321;53.200;5.814;2022-12-11T08:02:14;2.60;90.20
59505;DHT22;45321;53.200;5.814;2022-12-11T08:04:40;2.60;90.10
59505;DHT22;45321;53.200;5.814;2022-12-11T08:07:06;2.60;90.10
59505;DHT22;45321;53.200;5.814;2022-12-11T08:09:32;2.70;90.30
59505;DHT22;45321;53.200;5.814;2022-12-11T08:11:57;2.80;90.20
59505;DHT22;45321;53.200;5.814;2022-12-11T08:14:23;2.80;90.10
59505;DHT22;45321;53.200;5.814;2022-12-11T08:16:49;2.80;90.10
59505;DHT22;45321;53.200;5.814;2022-12-11T08:19:15;2.80;90.00
59505;DHT22;45321;53.200;5.814;2022-12-11T08:21:40;2.80;90.10
59505;DHT22;45321;53.200;5.814;2022-12-11T08:24:07;2.70;89.80
59505;DHT22;45321;53.200;5.814;2022-12-11T08:26:33;2.70;89.90
59505;DHT22;45321;53.200;5.814;2022-12-11T08:29:00;2.70;89.80
59505;DHT22;45321;53.200;5.814;2022-12-11T08:31:27;2.80;90.00
59505;DHT22;45321;53.200;5.814;2022-12-11T08:33:54;2.80;89.90
59505;DHT22;45321;53.200;5.814;2022-12-11T08:36:20;2.80;89.90
59505;DHT22;45321;53.200;5.814;2022-12-11T08:38:47;2.80;89.80
59505;DHT22;45321;53.200;5.814;2022-12-11T08:41:22;2.80;89.70
59505;DHT22;45321;53.200;5.814;2022-12-11T08:43:48;2.80;89.70
59505;DHT22;45321;53.200;5.814;2022-12-11T08:46:17;2.80;89.70
59505;DHT22;45321;53.200;5.814;2022-12-11T08:48:43;2.80;89.70
59505;DHT22;45321;53.200;5.814;2022-12-11T08:51:14;2.80;89.70
59505;DHT22;45321;53.200;5.814;2022-12-11T08:53:40;2.80;89.70
59505;DHT22;45321;53.200;5.814;2022-12-11T08:56:10;2.80;89.70
59505;DHT22;45321;53.200;5.814;2022-12-11T08:58:36;2.80;89.80
59505;DHT22;45321;53.200;5.814;2022-12-11T09:01:14;2.80;89.70
59505;DHT22;45321;53.200;5.814;2022-12-11T09:03:40;2.90;89.60
59505;DHT22;45321;53.200;5.814;2022-12-11T09:06:08;2.80;89.60
59505;DHT22;45321;53.200;5.814;2022-12-11T09:08:34;2.90;89.80
59505;DHT22;45321;53.200;5.814;2022-12-11T09:11:06;2.80;89.50
59505;DHT22;45321;53.200;5.814;2022-12-11T09:13:32;2.90;89.60
59505;DHT22;45321;53.200;5.814;2022-12-11T09:15:58;2.80;89.60
59505;DHT22;45321;53.200;5.814;2022-12-11T09:18:24;2.90;89.70
59505;DHT22;45321;53.200;5.814;2022-12-11T09:21:00;2.90;89.70
59505;DHT22;45321;53.200;5.814;2022-12-11T09:23:26;2.90;89.60
59505;DHT22;45321;53.200;5.814;2022-12-11T09:25:52;2.90;89.40
59505;DHT22;45321;53.200;5.814;2022-12-11T09:28:27;2.90;89.50
59505;DHT22;45321;53.200;5.814;2022-12-11T09:30:52;2.90;89.60
59505;DHT22;45321;53.200;5.814;2022-12-11T09:33:18;2.90;89.50
59505;DHT22;45321;53.200;5.814;2022-12-11T09:35:44;2.90;89.40
59505;DHT22;45321;53.200;5.814;2022-12-11T09:38:10;2.90;89.40
59505;DHT22;45321;53.200;5.814;2022-12-11T09:40:41;3.00;89.30
59505;DHT22;45321;53.200;5.814;2022-12-11T09:43:17;3.00;89.30
59505;DHT22;45321;53.200;5.814;2022-12-11T09:45:47;3.00;89.40
59505;DHT22;45321;53.200;5.814;2022-12-11T09:48:15;3.00;89.40
59505;DHT22;45321;53.200;5.814;2022-12-11T09:50:44;3.00;89.40
59505;DHT22;45321;53.200;5.814;2022-12-11T09:53:28;3.00;89.30
59505;DHT22;45321;53.200;5.814;2022-12-11T09:56:11;3.10;89.30
59505;DHT22;45321;53.200;5.814;2022-12-11T09:58:59;3.10;89.00
59505;DHT22;45321;53.200;5.814;2022-12-11T10:04:45;3.00;88.90
59505;DHT22;45321;53.200;5.814;2022-12-11T10:15:24;3.20;88.90
59505;DHT22;45321;53.200;5.814;2022-12-11T10:17:54;3.20;88.90
59505;DHT22;45321;53.200;5.814;2022-12-11T10:20:29;3.20;88.80
59505;DHT22;45321;53.200;5.814;2022-12-11T10:22:58;3.30;88.50
59505;DHT22;45321;53.200;5.814;2022-12-11T10:25:28;3.30;88.40
59505;DHT22;45321;53.200;5.814;2022-12-11T10:27:55;3.30;88.30
59505;DHT22;45321;53.200;5.814;2022-12-11T10:30:30;3.30;88.10
59505;DHT22;45321;53.200;5.814;2022-12-11T10:33:13;3.30;87.90
59505;DHT22;45321;53.200;5.814;2022-12-11T10:35:49;3.30;88.00
59505;DHT22;45321;53.200;5.814;2022-12-11T10:38:39;3.30;87.80
59505;DHT22;45321;53.200;5.814;2022-12-11T10:41:14;3.30;87.60
59505;DHT22;45321;53.200;5.814;2022-12-11T10:43:44;3.30;87.70
59505;DHT22;45321;53.200;5.814;2022-12-11T10:46:22;3.30;87.80
59505;DHT22;45321;53.200;5.814;2022-12-11T10:48:57;3.30;87.90
59505;DHT22;45321;53.200;5.814;2022-12-11T10:53:57;3.30;87.70
59505;DHT22;45321;53.200;5.814;2022-12-11T10:56:27;3.30;87.70
59505;DHT22;45321;53.200;5.814;2022-12-11T10:58:55;3.30;87.90
59505;DHT22;45321;53.200;5.814;2022-12-11T11:01:24;3.30;87.90
59505;DHT22;45321;53.200;5.814;2022-12-11T11:04:02;3.30;88.00
59505;DHT22;45321;53.200;5.814;2022-12-11T11:06:29;3.30;87.90
59505;DHT22;45321;53.200;5.814;2022-12-11T11:08:59;3.30;87.90
59505;DHT22;45321;53.200;5.814;2022-12-11T11:11:35;3.30;87.70
59505;DHT22;45321;53.200;5.814;2022-12-11T11:14:17;3.30;87.60
59505;DHT22;45321;53.200;5.814;2022-12-11T11:16:45;3.30;87.70
59505;DHT22;45321;53.200;5.814;2022-12-11T11:19:24;3.20;87.80
59505;DHT22;45321;53.200;5.814;2022-12-11T11:22:15;3.20;87.80
59505;DHT22;45321;53.200;5.814;2022-12-11T11:24:54;3.20;88.00
59505;DHT22;45321;53.200;5.814;2022-12-11T11:27:39;3.20;88.10
59505;DHT22;45321;53.200;5.814;2022-12-11T11:30:26;3.30;88.10
59505;DHT22;45321;53.200;5.814;2022-12-11T11:32:57;3.30;88.10
59505;DHT22;45321;53.200;5.814;2022-12-11T11:35:28;3.30;88.20
59505;DHT22;45321;53.200;5.814;2022-12-11T11:38:08;3.30;88.10
59505;DHT22;45321;53.200;5.814;2022-12-11T11:41:16;3.40;87.90
59505;DHT22;45321;53.200;5.814;2022-12-11T11:43:53;3.40;87.80
59505;DHT22;45321;53.200;5.814;2022-12-11T11:51:56;3.40;87.60
59505;DHT22;45321;53.200;5.814;2022-12-11T11:54:38;3.40;87.60
59505;DHT22;45321;53.200;5.814;2022-12-11T11:57:12;3.40;87.50
59505;DHT22;45321;53.200;5.814;2022-12-11T11:59:44;3.40;87.60
59505;DHT22;45321;53.200;5.814;2022-12-11T12:02:16;3.40;87.50
59505;DHT22;45321;53.200;5.814;2022-12-11T12:04:43;3.40;87.30
59505;DHT22;45321;53.200;5.814;2022-12-11T12:10:08;3.50;87.30
59505;DHT22;45321;53.200;5.814;2022-12-11T12:12:56;3.60;87.60
59505;DHT22;45321;53.200;5.814;2022-12-11T12:16:17;3.60;87.10
59505;DHT22;45321;53.200;5.814;2022-12-11T12:18:23;3.50;87.10
59505;DHT22;45321;53.200;5.814;2022-12-11T12:24:00;3.60;87.00
59505;DHT22;45321;53.200;5.814;2022-12-11T12:26:31;3.60;87.10
59505;DHT22;45321;53.200;5.814;2022-12-11T12:40:11;3.70;86.90
59505;DHT22;45321;53.200;5.814;2022-12-11T12:48:26;3.70;86.50
59505;DHT22;45321;53.200;5.814;2022-12-11T12:50:52;3.70;86.10
59505;DHT22;45321;53.200;5.814;2022-12-11T12:53:23;3.60;86.10
59505;DHT22;45321;53.200;5.814;2022-12-11T12:55:50;3.70;85.90
59505;DHT22;45321;53.200;5.814;2022-12-11T12:58:27;3.60;86.30
59505;DHT22;45321;53.200;5.814;2022-12-11T13:00:52;3.60;86.10
59505;DHT22;45321;53.200;5.814;2022-12-11T13:03:24;3.60;86.20
59505;DHT22;45321;53.200;5.814;2022-12-11T13:06:08;3.60;86.20
59505;DHT22;45321;53.200;5.814;2022-12-11T13:08:45;3.60;86.30
59505;DHT22;45321;53.200;5.814;2022-12-11T13:11:12;3.60;86.40
59505;DHT22;45321;53.200;5.814;2022-12-11T13:13:43;3.50;86.30
59505;DHT22;45321;53.200;5.814;2022-12-11T13:18:44;3.60;86.30
59505;DHT22;45321;53.200;5.814;2022-12-11T13:21:38;3.60;86.40
59505;DHT22;45321;53.200;5.814;2022-12-11T13:26:47;3.70;86.30
59505;DHT22;45321;53.200;5.814;2022-12-11T13:29:29;3.70;86.10
59505;DHT22;45321;53.200;5.814;2022-12-11T13:31:59;3.60;86.00
59505;DHT22;45321;53.200;5.814;2022-12-11T13:34:27;3.60;85.90
59505;DHT22;45321;53.200;5.814;2022-12-11T13:36:56;3.60;85.90
59505;DHT22;45321;53.200;5.814;2022-12-11T13:39:25;3.60;85.50
59505;DHT22;45321;53.200;5.814;2022-12-11T13:41:55;3.60;85.40
59505;DHT22;45321;53.200;5.814;2022-12-11T13:44:27;3.60;85.20
59505;DHT22;45321;53.200;5.814;2022-12-11T13:46:56;3.60;85.20
59505;DHT22;45321;53.200;5.814;2022-12-11T13:49:25;3.60;85.30
59505;DHT22;45321;53.200;5.814;2022-12-11T13:51:59;3.60;84.70
59505;DHT22;45321;53.200;5.814;2022-12-11T13:54:26;3.60;84.80
59505;DHT22;45321;53.200;5.814;2022-12-11T13:59:24;3.60;84.90
59505;DHT22;45321;53.200;5.814;2022-12-11T14:01:50;3.70;84.90
59505;DHT22;45321;53.200;5.814;2022-12-11T14:04:19;3.70;84.80
59505;DHT22;45321;53.200;5.814;2022-12-11T14:06:46;3.60;84.30
59505;DHT22;45321;53.200;5.814;2022-12-11T14:09:18;3.50;84.70
59505;DHT22;45321;53.200;5.814;2022-12-11T14:11:45;3.50;84.60
59505;DHT22;45321;53.200;5.814;2022-12-11T14:14:44;3.50;84.80
59505;DHT22;45321;53.200;5.814;2022-12-11T14:17:13;3.50;84.70
59505;DHT22;45321;53.200;5.814;2022-12-11T14:19:44;3.40;84.60
59505;DHT22;45321;53.200;5.814;2022-12-11T14:22:19;3.40;84.90
59505;DHT22;45321;53.200;5.814;2022-12-11T14:24:52;3.30;85.00
59505;DHT22;45321;53.200;5.814;2022-12-11T14:27:19;3.30;85.00
59505;DHT22;45321;53.200;5.814;2022-12-11T14:29:46;3.30;85.00
59505;DHT22;45321;53.200;5.814;2022-12-11T14:32:30;3.20;84.80
59505;DHT22;45321;53.200;5.814;2022-12-11T14:34:57;3.20;84.40
59505;DHT22;45321;53.200;5.814;2022-12-11T14:37:24;3.10;84.20
59505;DHT22;45321;53.200;5.814;2022-12-11T14:40:00;3.10;84.50
59505;DHT22;45321;53.200;5.814;2022-12-11T14:42:33;3.10;84.50
59505;DHT22;45321;53.200;5.814;2022-12-11T14:45:06;3.10;84.50
59505;DHT22;45321;53.200;5.814;2022-12-11T14:47:41;3.10;84.70
59505;DHT22;45321;53.200;5.814;2022-12-11T14:52:57;3.10;84.10
59505;DHT22;45321;53.200;5.814;2022-12-11T14:55:32;3.00;84.00
59505;DHT22;45321;53.200;5.814;2022-12-11T14:58:23;2.90;84.40
59505;DHT22;45321;53.200;5.814;2022-12-11T15:03:32;3.00;84.70
59505;DHT22;45321;53.200;5.814;2022-12-11T15:05:59;3.00;84.70
59505;DHT22;45321;53.200;5.814;2022-12-11T15:08:34;3.10;85.00
59505;DHT22;45321;53.200;5.814;2022-12-11T15:11:10;3.10;85.00
59505;DHT22;45321;53.200;5.814;2022-12-11T15:13:52;3.20;84.20
59505;DHT22;45321;53.200;5.814;2022-12-11T15:16:18;3.10;83.90
59505;DHT22;45321;53.200;5.814;2022-12-11T15:18:48;3.10;83.90
59505;DHT22;45321;53.200;5.814;2022-12-11T15:21:14;3.10;83.80
59505;DHT22;45321;53.200;5.814;2022-12-11T15:23:53;3.10;83.70
59505;DHT22;45321;53.200;5.814;2022-12-11T15:26:49;3.10;83.80
59505;DHT22;45321;53.200;5.814;2022-12-11T15:29:35;3.10;83.80
59505;DHT22;45321;53.200;5.814;2022-12-11T15:34:34;3.00;83.40
59505;DHT22;45321;53.200;5.814;2022-12-11T15:37:00;3.00;83.40
59505;DHT22;45321;53.200;5.814;2022-12-11T15:39:26;3.00;83.20
59505;DHT22;45321;53.200;5.814;2022-12-11T15:41:52;2.90;83.50
59505;DHT22;45321;53.200;5.814;2022-12-11T15:44:20;3.00;83.40
59505;DHT22;45321;53.200;5.814;2022-12-11T15:46:48;3.00;83.30
59505;DHT22;45321;53.200;5.814;2022-12-11T15:49:13;2.90;82.70
59505;DHT22;45321;53.200;5.814;2022-12-11T15:51:40;2.90;82.90
59505;DHT22;45321;53.200;5.814;2022-12-11T15:54:05;2.90;82.50
59505;DHT22;45321;53.200;5.814;2022-12-11T15:56:31;2.90;82.90
59505;DHT22;45321;53.200;5.814;2022-12-11T15:59:03;2.90;82.20
59505;DHT22;45321;53.200;5.814;2022-12-11T16:01:31;3.00;82.70
59505;DHT22;45321;53.200;5.814;2022-12-11T16:03:56;3.00;83.00
59505;DHT22;45321;53.200;5.814;2022-12-11T16:06:22;2.90;82.90
59505;DHT22;45321;53.200;5.814;2022-12-11T16:08:48;3.00;82.90
59505;DHT22;45321;53.200;5.814;2022-12-11T16:11:14;2.90;82.20
59505;DHT22;45321;53.200;5.814;2022-12-11T16:13:39;2.90;82.70
59505;DHT22;45321;53.200;5.814;2022-12-11T16:16:05;2.90;82.70
59505;DHT22;45321;53.200;5.814;2022-12-11T16:18:31;2.90;82.60
59505;DHT22;45321;53.200;5.814;2022-12-11T16:20:57;2.90;82.70
59505;DHT22;45321;53.200;5.814;2022-12-11T16:23:28;2.90;82.40
59505;DHT22;45321;53.200;5.814;2022-12-11T16:25:54;2.90;82.00
59505;DHT22;45321;53.200;5.814;2022-12-11T16:28:19;2.90;81.50
59505;DHT22;45321;53.200;5.814;2022-12-11T16:30:51;2.90;81.90
59505;DHT22;45321;53.200;5.814;2022-12-11T16:33:17;2.90;81.80
59505;DHT22;45321;53.200;5.814;2022-12-11T16:35:42;2.90;81.90
59505;DHT22;45321;53.200;5.814;2022-12-11T16:38:09;2.90;81.70
59505;DHT22;45321;53.200;5.814;2022-12-11T16:40:35;2.90;82.10
59505;DHT22;45321;53.200;5.814;2022-12-11T16:43:03;2.90;82.20
59505;DHT22;45321;53.200;5.814;2022-12-11T16:45:29;2.90;82.10
59505;DHT22;45321;53.200;5.814;2022-12-11T16:47:55;2.90;82.40
59505;DHT22;45321;53.200;5.814;2022-12-11T16:50:22;2.80;81.90
59505;DHT22;45321;53.200;5.814;2022-12-11T16:52:48;2.80;82.50
59505;DHT22;45321;53.200;5.814;2022-12-11T16:55:14;2.90;82.40
59505;DHT22;45321;53.200;5.814;2022-12-11T16:57:41;2.80;82.60
59505;DHT22;45321;53.200;5.814;2022-12-11T17:00:09;2.90;82.60
59505;DHT22;45321;53.200;5.814;2022-12-11T17:02:36;2.90;82.50
59505;DHT22;45321;53.200;5.814;2022-12-11T17:05:02;2.90;82.40
59505;DHT22;45321;53.200;5.814;2022-12-11T17:07:29;2.90;83.50
59505;DHT22;45321;53.200;5.814;2022-12-11T17:09:55;2.90;83.10